Time;durP1;ratioP1;P1;durP2;ratioP2;P2;SDS_P1;SDS_P2;PMS_P1;PMS_P2;Temp;Humidity;BMP_temperature;BMP_pressure;BME280_temperature;BME280_humidity;BME280_pressure;Samples;Min_cycle;Max_cycle;Signal;HPM_P1;HPM_P2
2021/05/24 00:01:26;;;;;;;3.67;0.93;;;19.50;93.70;;;;;;5033933;28;20034;-64
2021/05/24 00:03:52;;;;;;;2.72;0.85;;;19.50;93.80;;;;;;5034453;28;20525;-64
2021/05/24 00:06:18;;;;;;;2.20;0.80;;;19.50;93.80;;;;;;5033535;28;20025;-64
2021/05/24 00:08:43;;;;;;;2.72;0.77;;;19.50;93.70;;;;;;5033771;28;20030;-64
2021/05/24 00:11:09;;;;;;;4.03;0.50;;;19.50;93.90;;;;;;5034507;28;20501;-66
2021/05/24 00:13:43;;;;;;;2.97;0.73;;;19.50;93.70;;;;;;5033973;28;20367;-66
2021/05/24 00:16:10;;;;;;;5.45;0.82;;;19.40;93.50;;;;;;5034587;28;20021;-64
2021/05/24 00:18:35;;;;;;;6.43;0.80;;;19.50;93.90;;;;;;5034244;28;20397;-64
2021/05/24 00:21:02;;;;;;;2.97;0.60;;;19.50;93.60;;;;;;5034381;28;20060;-64
2021/05/24 00:23:27;;;;;;;2.80;0.63;;;19.50;93.50;;;;;;5034099;28;20029;-65
2021/05/24 00:25:53;;;;;;;4.35;0.60;;;19.50;93.50;;;;;;5034176;28;20022;-63
2021/05/24 00:28:19;;;;;;;1.83;0.57;;;19.50;93.50;;;;;;5033394;28;20105;-66
2021/05/24 00:30:46;;;;;;;3.05;0.60;;;19.50;93.60;;;;;;5033743;28;20100;-64
2021/05/24 00:33:12;;;;;;;1.90;0.50;;;19.50;93.50;;;;;;5034188;28;20061;-64
2021/05/24 00:35:39;;;;;;;2.60;0.63;;;19.50;93.50;;;;;;5034231;28;20037;-63
2021/05/24 00:38:06;;;;;;;2.67;0.60;;;19.50;93.50;;;;;;5033942;28;20034;-63
2021/05/24 00:40:33;;;;;;;1.17;0.70;;;19.50;93.50;;;;;;5033913;28;20041;-63
2021/05/24 00:43:00;;;;;;;1.92;0.60;;;19.50;93.50;;;;;;5032731;28;20029;-63
2021/05/24 00:45:26;;;;;;;1.88;0.45;;;19.50;93.50;;;;;;5033862;28;20117;-62
2021/05/24 00:47:52;;;;;;;2.58;0.60;;;19.50;93.50;;;;;;5033654;28;20108;-62
2021/05/24 00:50:18;;;;;;;0.95;0.50;;;19.50;93.50;;;;;;5033797;28;20039;-62
2021/05/24 00:52:44;;;;;;;1.17;0.40;;;19.40;93.40;;;;;;5033390;28;20030;-63
2021/05/24 00:55:10;;;;;;;1.25;0.63;;;19.40;93.70;;;;;;5033660;28;20428;-64
2021/05/24 00:57:37;;;;;;;1.23;0.50;;;19.50;93.40;;;;;;5033084;28;20079;-64
2021/05/24 01:00:13;;;;;;;0.80;0.40;;;19.40;93.40;;;;;;5033620;28;20079;-64
2021/05/24 01:02:38;;;;;;;1.90;0.70;;;19.40;93.40;;;;;;5033449;28;20021;-64
2021/05/24 01:05:05;;;;;;;1.55;0.47;;;19.40;93.40;;;;;;5033523;28;20565;-64
2021/05/24 01:07:31;;;;;;;1.10;0.52;;;19.50;93.50;;;;;;5032951;28;20048;-64
2021/05/24 01:09:57;;;;;;;0.63;0.45;;;19.40;93.60;;;;;;5033251;28;20029;-63
2021/05/24 01:12:23;;;;;;;1.17;0.57;;;19.40;93.70;;;;;;5033049;28;20026;-63
2021/05/24 01:14:48;;;;;;;1.42;0.52;;;19.40;93.80;;;;;;5033425;28;20060;-63
2021/05/24 01:17:14;;;;;;;0.70;0.40;;;19.40;93.80;;;;;;5032446;28;20523;-64
2021/05/24 01:19:49;;;;;;;0.70;0.40;;;19.40;93.80;;;;;;5032835;28;20048;-63
2021/05/24 01:22:20;;;;;;;1.05;0.40;;;19.30;93.80;;;;;;5032994;28;20025;-63
2021/05/24 01:24:46;;;;;;;1.08;0.55;;;19.30;93.80;;;;;;5032761;28;20021;-64
2021/05/24 01:27:13;;;;;;;2.15;0.60;;;19.30;93.90;;;;;;5032821;28;20060;-64
2021/05/24 01:29:39;;;;;;;1.17;0.52;;;19.30;93.90;;;;;;5032474;28;20021;-64
2021/05/24 01:32:06;;;;;;;1.08;0.43;;;19.30;94.00;;;;;;5032126;28;20048;-64
2021/05/24 01:34:33;;;;;;;0.98;0.50;;;19.30;94.00;;;;;;5032468;28;20037;-63
2021/05/24 01:37:00;;;;;;;0.68;0.40;;;19.30;94.00;;;;;;5033366;28;20021;-63
2021/05/24 01:39:25;;;;;;;1.50;0.40;;;19.30;94.10;;;;;;5032581;28;20036;-64
2021/05/24 01:41:51;;;;;;;1.15;0.52;;;19.30;94.10;;;;;;5032489;28;20029;-63
2021/05/24 01:44:36;;;;;;;0.98;0.47;;;19.30;94.20;;;;;;5032710;28;20057;-63
2021/05/24 01:47:03;;;;;;;2.42;0.77;;;19.30;94.20;;;;;;5032142;28;20057;-62
2021/05/24 01:49:31;;;;;;;3.00;0.50;;;19.20;94.20;;;;;;5031911;28;20029;-63
2021/05/24 01:51:57;;;;;;;1.08;0.60;;;19.20;94.30;;;;;;5032688;28;20104;-64
2021/05/24 01:54:22;;;;;;;1.10;0.45;;;19.30;94.30;;;;;;5031745;28;20604;-63
2021/05/24 01:56:48;;;;;;;1.58;0.50;;;19.30;94.30;;;;;;5032378;28;20117;-63
2021/05/24 01:59:14;;;;;;;0.50;0.40;;;19.30;94.30;;;;;;5031655;28;20013;-63
2021/05/24 02:01:40;;;;;;;0.82;0.40;;;19.30;94.30;;;;;;5032127;28;20041;-65
2021/05/24 02:04:05;;;;;;;1.00;0.60;;;19.20;94.30;;;;;;5032141;28;20028;-64
2021/05/24 02:06:31;;;;;;;3.42;0.65;;;19.20;94.70;;;;;;5032108;28;20098;-64
2021/05/24 02:08:57;;;;;;;0.88;0.57;;;19.20;94.30;;;;;;5032176;28;20085;-64
2021/05/24 02:11:23;;;;;;;1.77;0.60;;;19.30;94.30;;;;;;5031652;28;20100;-65
2021/05/24 02:13:49;;;;;;;0.63;0.45;;;19.20;94.30;;;;;;5032295;28;20104;-63
2021/05/24 02:16:14;;;;;;;3.60;0.60;;;19.30;94.40;;;;;;5032100;28;20029;-64
2021/05/24 02:18:41;;;;;;;1.73;0.60;;;19.20;94.40;;;;;;5032107;28;20021;-64
2021/05/24 02:21:08;;;;;;;3.08;0.50;;;19.20;94.50;;;;;;5032087;28;20115;-64
2021/05/24 02:23:33;;;;;;;1.52;0.60;;;19.20;94.50;;;;;;5031563;28;20029;-64
2021/05/24 02:25:59;;;;;;;1.08;0.60;;;19.20;94.50;;;;;;5031715;28;20029;-63
2021/05/24 02:28:25;;;;;;;3.78;0.60;;;19.20;94.60;;;;;;5031379;28;20466;-63
2021/05/24 02:30:51;;;;;;;0.80;0.38;;;19.20;94.60;;;;;;5031766;28;20041;-61
2021/05/24 02:33:17;;;;;;;1.25;0.52;;;19.20;94.70;;;;;;5031366;28;20028;-63
2021/05/24 02:35:44;;;;;;;1.25;0.47;;;19.20;94.70;;;;;;5031778;28;20378;-61
2021/05/24 02:38:11;;;;;;;1.55;0.60;;;19.20;94.80;;;;;;5030187;28;20136;-61
2021/05/24 02:40:37;;;;;;;0.50;0.50;;;19.20;94.80;;;;;;5031350;28;20039;-63
2021/05/24 02:43:04;;;;;;;2.17;0.45;;;19.20;94.80;;;;;;5031420;28;20022;-64
2021/05/24 02:45:31;;;;;;;1.15;0.40;;;19.20;94.80;;;;;;5031322;28;20083;-63
2021/05/24 02:48:00;;;;;;;2.70;0.55;;;19.20;95.20;;;;;;5031434;28;20044;-63
2021/05/24 02:50:27;;;;;;;1.90;0.55;;;19.10;94.80;;;;;;5030791;28;20358;-64
2021/05/24 02:52:53;;;;;;;2.28;0.55;;;19.20;95.20;;;;;;5031548;28;20021;-62
2021/05/24 02:55:19;;;;;;;0.73;0.43;;;19.20;94.90;;;;;;5031184;28;20032;-63
2021/05/24 02:57:45;;;;;;;1.13;0.50;;;19.10;94.90;;;;;;5031776;28;20025;-63
2021/05/24 03:00:11;;;;;;;1.60;0.63;;;19.10;94.90;;;;;;5035012;28;20030;-62
2021/05/24 03:02:49;;;;;;;1.23;0.60;;;19.10;94.90;;;;;;5034978;28;20083;-61
2021/05/24 03:05:18;;;;;;;1.13;0.40;;;19.20;94.90;;;;;;5035203;28;20473;-62
2021/05/24 03:07:44;;;;;;;2.05;0.50;;;19.10;94.90;;;;;;5034810;28;20025;-63
2021/05/24 03:10:11;;;;;;;1.02;0.40;;;19.10;95.20;;;;;;5035160;28;20492;-65
2021/05/24 03:12:36;;;;;;;0.95;0.52;;;19.10;94.90;;;;;;5034992;28;20053;-65
2021/05/24 03:15:03;;;;;;;0.90;0.35;;;19.10;94.90;;;;;;5035148;28;20378;-65
2021/05/24 03:17:28;;;;;;;2.55;0.40;;;19.10;95.00;;;;;;5034627;28;20057;-64
2021/05/24 03:19:54;;;;;;;1.80;0.50;;;19.10;95.30;;;;;;5034658;28;20076;-64
2021/05/24 03:22:20;;;;;;;1.58;0.60;;;19.20;95.00;;;;;;5035271;28;20026;-64
2021/05/24 03:24:45;;;;;;;1.95;0.70;;;19.10;95.00;;;;;;5034641;28;20038;-64
2021/05/24 03:27:11;;;;;;;3.05;0.60;;;19.10;95.00;;;;;;5034583;28;20033;-64
2021/05/24 03:29:37;;;;;;;0.60;0.50;;;19.20;95.00;;;;;;5034609;28;20033;-64
2021/05/24 03:32:03;;;;;;;1.90;0.40;;;19.10;95.00;;;;;;5034454;28;20032;-65
2021/05/24 03:34:28;;;;;;;0.85;0.50;;;19.10;95.00;;;;;;5034756;28;20029;-64
2021/05/24 03:36:54;;;;;;;1.13;0.50;;;19.10;95.00;;;;;;5034979;28;20018;-65
2021/05/24 03:39:20;;;;;;;1.50;0.55;;;19.10;95.00;;;;;;5034896;28;20358;-65
2021/05/24 03:41:46;;;;;;;1.80;0.47;;;19.10;95.10;;;;;;5035330;28;20064;-65
2021/05/24 03:44:12;;;;;;;1.48;0.60;;;19.10;95.10;;;;;;5034409;28;20053;-65
2021/05/24 03:46:37;;;;;;;0.50;0.38;;;19.10;95.20;;;;;;5034112;28;20037;-65
2021/05/24 03:49:04;;;;;;;0.40;0.38;;;19.10;95.30;;;;;;5034588;28;20093;-66
2021/05/24 03:51:31;;;;;;;1.00;0.50;;;19.10;95.30;;;;;;5032900;28;20037;-66
2021/05/24 03:53:57;;;;;;;1.25;0.50;;;19.10;95.30;;;;;;5033313;28;20026;-65
2021/05/24 03:56:23;;;;;;;1.73;0.60;;;19.10;95.30;;;;;;5032606;28;20095;-65
2021/05/24 03:58:48;;;;;;;1.35;0.50;;;19.10;95.40;;;;;;5033721;28;20416;-65
2021/05/24 04:01:14;;;;;;;1.40;0.40;;;19.00;95.40;;;;;;5033227;28;20377;-65
2021/05/24 04:03:40;;;;;;;0.85;0.50;;;19.00;95.40;;;;;;5032809;28;20477;-64
2021/05/24 04:06:07;;;;;;;2.55;0.50;;;19.00;95.50;;;;;;5032617;28;20433;-64
2021/05/24 04:08:38;;;;;;;1.05;0.40;;;19.00;95.50;;;;;;5032481;28;20025;-65
2021/05/24 04:11:04;;;;;;;0.85;0.43;;;19.10;95.50;;;;;;5032902;28;20462;-64
2021/05/24 04:13:31;;;;;;;0.60;0.47;;;19.10;95.50;;;;;;5032801;28;20129;-64
2021/05/24 04:15:57;;;;;;;0.80;0.45;;;19.10;95.50;;;;;;5032944;28;20170;-65
2021/05/24 04:18:26;;;;;;;1.05;0.57;;;19.00;95.50;;;;;;5032810;28;20033;-65
2021/05/24 04:20:52;;;;;;;1.52;0.60;;;19.00;95.50;;;;;;5032915;28;20115;-64
2021/05/24 04:23:18;;;;;;;2.22;0.57;;;19.00;95.40;;;;;;5033263;28;20505;-64
2021/05/24 04:25:44;;;;;;;0.70;0.50;;;19.10;95.40;;;;;;5031510;28;20116;-66
2021/05/24 04:28:10;;;;;;;0.75;0.40;;;19.00;95.40;;;;;;5032251;28;20061;-66
2021/05/24 04:30:36;;;;;;;1.25;0.50;;;19.00;95.40;;;;;;5032637;28;20064;-65
2021/05/24 04:33:02;;;;;;;0.60;0.40;;;19.10;95.40;;;;;;5032546;28;20470;-66
2021/05/24 04:35:27;;;;;;;1.25;0.47;;;19.00;95.40;;;;;;5032316;28;20034;-66
2021/05/24 04:37:53;;;;;;;1.63;0.77;;;19.00;95.40;;;;;;5032751;28;20155;-66
2021/05/24 04:40:19;;;;;;;1.85;0.40;;;19.00;95.40;;;;;;5032767;28;20030;-64
2021/05/24 04:42:46;;;;;;;0.77;0.40;;;19.00;95.40;;;;;;5032532;28;20103;-65
2021/05/24 04:45:12;;;;;;;0.90;0.50;;;19.00;95.40;;;;;;5032424;28;20529;-64
2021/05/24 04:47:40;;;;;;;0.73;0.50;;;19.00;95.50;;;;;;5031994;28;20385;-64
2021/05/24 04:50:06;;;;;;;0.63;0.30;;;19.00;95.50;;;;;;5011689;28;605434;-63
2021/05/24 04:52:32;;;;;;;0.55;0.40;;;19.00;95.50;;;;;;5033136;28;20112;-63
2021/05/24 04:54:58;;;;;;;0.90;0.50;;;19.00;95.40;;;;;;5033265;28;20167;-64
2021/05/24 04:57:23;;;;;;;0.60;0.50;;;19.00;95.50;;;;;;5032968;28;20026;-64
2021/05/24 04:59:49;;;;;;;1.13;0.40;;;19.00;95.40;;;;;;5032892;28;20037;-65
2021/05/24 05:02:15;;;;;;;0.70;0.45;;;19.00;95.40;;;;;;5032892;28;20452;-65
2021/05/24 05:04:40;;;;;;;0.77;0.40;;;19.00;95.40;;;;;;5032875;28;20176;-64
2021/05/24 05:07:06;;;;;;;1.13;0.40;;;19.00;95.40;;;;;;5033021;28;20069;-65
2021/05/24 05:09:32;;;;;;;0.85;0.40;;;19.00;95.50;;;;;;5032881;28;20104;-63
2021/05/24 05:11:57;;;;;;;0.52;0.30;;;19.00;95.50;;;;;;5032855;28;20041;-63
2021/05/24 05:14:24;;;;;;;0.63;0.45;;;19.00;95.40;;;;;;5032838;28;20021;-61
2021/05/24 05:16:50;;;;;;;0.70;0.40;;;19.00;95.60;;;;;;5033619;28;20029;-62
2021/05/24 05:19:18;;;;;;;3.78;0.43;;;19.00;94.70;;;;;;5032761;28;20469;-63
2021/05/24 05:21:48;;;;;;;2.03;0.35;;;18.90;94.50;;;;;;5031693;28;20038;-62
2021/05/24 05:24:14;;;;;;;1.88;0.43;;;18.90;94.50;;;;;;5032334;28;20021;-63
2021/05/24 05:26:40;;;;;;;3.03;0.30;;;18.90;94.60;;;;;;5032448;28;20080;-61
2021/05/24 05:29:05;;;;;;;0.85;0.47;;;18.90;94.60;;;;;;5032585;28;20076;-61
2021/05/24 05:31:31;;;;;;;0.85;0.50;;;18.90;94.70;;;;;;5032191;28;20037;-63
2021/05/24 05:33:57;;;;;;;1.75;0.40;;;18.90;94.70;;;;;;5032123;28;20087;-64
2021/05/24 05:36:25;;;;;;;1.23;0.40;;;18.90;94.80;;;;;;5032442;28;20034;-63
2021/05/24 05:38:50;;;;;;;2.00;0.43;;;18.90;94.80;;;;;;5032098;28;20021;-62
2021/05/24 05:41:16;;;;;;;0.95;0.45;;;18.90;94.80;;;;;;5032556;28;20037;-64
2021/05/24 05:43:42;;;;;;;0.60;0.35;;;18.90;94.90;;;;;;5032463;28;20096;-64
2021/05/24 05:46:08;;;;;;;1.65;0.40;;;18.90;94.90;;;;;;5032419;28;20036;-63
2021/05/24 05:48:34;;;;;;;0.82;0.40;;;18.90;95.00;;;;;;5032168;28;20155;-63
2021/05/24 05:51:00;;;;;;;0.65;0.43;;;18.90;95.00;;;;;;5032161;28;20124;-63
2021/05/24 05:53:26;;;;;;;0.65;0.40;;;18.90;95.10;;;;;;5031449;28;20427;-62
2021/05/24 05:55:52;;;;;;;0.80;0.40;;;18.90;95.10;;;;;;5032099;28;20033;-63
2021/05/24 05:58:19;;;;;;;1.20;0.40;;;18.90;95.10;;;;;;5032466;28;20079;-63
2021/05/24 06:00:45;;;;;;;1.10;0.47;;;18.90;95.10;;;;;;5031246;28;20324;-64
2021/05/24 06:03:11;;;;;;;0.52;0.32;;;18.90;95.10;;;;;;5032076;28;20017;-64
2021/05/24 06:05:37;;;;;;;1.17;0.50;;;18.90;95.20;;;;;;5031751;28;20029;-64
2021/05/24 06:08:03;;;;;;;1.40;0.40;;;18.90;95.20;;;;;;5031720;28;20039;-64
2021/05/24 06:10:30;;;;;;;0.60;0.38;;;18.90;95.10;;;;;;5031547;28;20075;-63
2021/05/24 06:12:56;;;;;;;1.13;0.50;;;18.90;95.10;;;;;;5031881;28;20025;-65
2021/05/24 06:15:22;;;;;;;2.05;0.50;;;18.90;95.20;;;;;;5031553;28;20026;-64
2021/05/24 06:17:47;;;;;;;3.30;0.50;;;18.90;95.10;;;;;;5031890;28;20025;-68
2021/05/24 06:20:13;;;;;;;0.50;0.30;;;18.90;95.30;;;;;;5031565;28;20033;-68
2021/05/24 06:22:40;;;;;;;0.93;0.40;;;19.00;95.20;;;;;;5031101;28;20037;-68
2021/05/24 06:25:07;;;;;;;4.40;0.30;;;18.90;95.20;;;;;;5031744;28;20092;-69
2021/05/24 06:27:33;;;;;;;0.75;0.30;;;18.90;95.20;;;;;;5031626;28;20493;-69
2021/05/24 06:29:58;;;;;;;0.93;0.47;;;18.90;95.20;;;;;;5031455;28;20029;-68
2021/05/24 06:32:24;;;;;;;1.55;0.50;;;18.90;95.20;;;;;;5030919;28;20029;-68
2021/05/24 06:34:50;;;;;;;0.57;0.30;;;18.90;95.20;;;;;;5031860;28;20033;-68
2021/05/24 06:37:16;;;;;;;1.65;0.40;;;18.90;95.60;;;;;;5031705;28;20105;-66
2021/05/24 06:39:41;;;;;;;0.88;0.50;;;18.80;95.30;;;;;;5030924;28;20037;-68
2021/05/24 06:42:08;;;;;;;1.38;0.60;;;18.80;95.30;;;;;;5029276;28;20042;-66
2021/05/24 06:44:34;;;;;;;1.23;0.35;;;18.80;95.20;;;;;;5030387;28;20036;-68
2021/05/24 06:46:59;;;;;;;1.25;0.50;;;18.80;95.30;;;;;;5031461;28;20032;-68
2021/05/24 06:49:25;;;;;;;2.03;0.50;;;18.80;95.20;;;;;;5031221;28;20469;-68
2021/05/24 06:51:51;;;;;;;2.30;0.50;;;18.80;95.20;;;;;;5030950;28;20049;-63
2021/05/24 06:54:17;;;;;;;1.08;0.50;;;18.90;95.20;;;;;;5031827;28;20073;-69
2021/05/24 06:56:42;;;;;;;0.75;0.40;;;18.90;95.20;;;;;;5031043;28;20456;-68
2021/05/24 06:59:08;;;;;;;1.52;0.40;;;18.90;95.20;;;;;;5031297;28;20101;-67
2021/05/24 07:01:35;;;;;;;3.08;0.57;;;18.90;95.20;;;;;;5030661;28;20367;-67
2021/05/24 07:04:01;;;;;;;1.98;0.40;;;18.90;95.20;;;;;;5031447;28;20040;-68
2021/05/24 07:06:27;;;;;;;1.95;0.35;;;18.90;95.20;;;;;;5030378;28;20517;-65
2021/05/24 07:08:52;;;;;;;2.70;0.65;;;18.90;95.10;;;;;;5030942;28;20028;-67
2021/05/24 07:11:18;;;;;;;0.70;0.30;;;18.90;95.10;;;;;;5030481;28;20041;-65
2021/05/24 07:13:43;;;;;;;1.90;0.60;;;18.90;95.10;;;;;;5030338;28;20397;-74
2021/05/24 07:16:09;;;;;;;0.88;0.30;;;18.90;95.10;;;;;;5030685;28;20384;-69
2021/05/24 07:18:34;;;;;;;3.13;0.40;;;18.90;95.10;;;;;;5030913;28;20021;-71
2021/05/24 07:21:00;;;;;;;0.90;0.50;;;18.90;95.10;;;;;;5030488;28;20037;-72
2021/05/24 07:23:26;;;;;;;1.05;0.40;;;18.90;95.10;;;;;;5030455;28;20025;-69
2021/05/24 07:25:52;;;;;;;0.55;0.40;;;18.90;95.10;;;;;;5029630;28;20032;-70
2021/05/24 07:28:18;;;;;;;1.52;0.40;;;18.90;95.00;;;;;;5029319;28;20041;-70
2021/05/24 07:30:44;;;;;;;0.60;0.40;;;19.00;95.00;;;;;;5030371;28;20033;-74
2021/05/24 07:33:10;;;;;;;0.82;0.30;;;18.90;95.00;;;;;;5027224;28;20014;-68
2021/05/24 07:35:35;;;;;;;1.35;0.55;;;19.00;95.10;;;;;;5029729;28;20033;-68
2021/05/24 07:38:01;;;;;;;1.60;0.50;;;19.00;95.20;;;;;;5030397;28;20041;-68
2021/05/24 07:40:27;;;;;;;1.65;0.60;;;19.00;95.10;;;;;;5030563;28;20029;-67
2021/05/24 07:42:52;;;;;;;1.35;0.50;;;19.00;95.10;;;;;;5030103;28;20103;-70
2021/05/24 07:45:18;;;;;;;1.10;0.45;;;19.00;95.20;;;;;;5034776;28;20085;-64
2021/05/24 07:47:44;;;;;;;4.30;0.52;;;19.00;95.50;;;;;;5032609;28;20053;-67
2021/05/24 07:50:09;;;;;;;4.22;0.60;;;18.90;95.60;;;;;;5032752;28;20037;-67
2021/05/24 07:52:35;;;;;;;2.72;0.50;;;18.80;95.50;;;;;;5031861;28;20042;-66
2021/05/24 07:55:02;;;;;;;1.60;0.60;;;18.60;95.60;;;;;;5032681;28;20030;-65
2021/05/24 07:57:28;;;;;;;2.40;0.60;;;18.60;96.00;;;;;;5032609;28;20108;-67
2021/05/24 07:59:54;;;;;;;1.73;0.77;;;18.50;95.90;;;;;;5033327;28;20112;-66
2021/05/24 08:02:21;;;;;;;3.53;1.05;;;18.40;96.00;;;;;;5033946;28;20075;-67
2021/05/24 08:04:47;;;;;;;3.13;1.38;;;18.30;96.00;;;;;;5034352;28;20052;-67
2021/05/24 08:07:13;;;;;;;2.25;1.48;;;18.30;96.00;;;;;;5033908;28;20029;-67
2021/05/24 08:09:39;;;;;;;2.28;1.20;;;18.40;95.80;;;;;;5033745;28;20109;-67
2021/05/24 08:12:05;;;;;;;4.28;1.60;;;18.40;95.90;;;;;;5033808;28;20026;-66
2021/05/24 08:14:30;;;;;;;3.65;1.63;;;18.20;96.00;;;;;;5033777;28;20428;-67
2021/05/24 08:16:58;;;;;;;4.50;1.75;;;18.20;96.00;;;;;;5033679;28;20064;-65
2021/05/24 08:19:23;;;;;;;2.67;1.33;;;18.30;95.60;;;;;;5033573;28;20065;-66
2021/05/24 08:21:50;;;;;;;2.67;0.98;;;18.20;95.70;;;;;;5033168;28;20065;-65
2021/05/24 08:24:17;;;;;;;1.95;0.80;;;18.00;95.90;;;;;;5033174;28;20018;-65
2021/05/24 08:26:44;;;;;;;1.63;0.60;;;18.00;95.90;;;;;;5033631;28;20025;-65
2021/05/24 08:29:10;;;;;;;3.95;0.73;;;18.00;96.30;;;;;;5033452;28;20531;-65
2021/05/24 08:31:37;;;;;;;1.52;0.65;;;18.00;96.00;;;;;;5032862;28;20374;-65
2021/05/24 08:34:04;;;;;;;1.48;0.70;;;17.90;96.10;;;;;;5032574;28;20030;-69
2021/05/24 08:36:30;;;;;;;1.50;0.68;;;18.00;96.20;;;;;;5027389;28;20029;-72
2021/05/24 08:38:56;;;;;;;1.65;0.80;;;18.40;95.80;;;;;;5032848;28;20469;-68
2021/05/24 08:41:21;;;;;;;1.52;0.68;;;18.80;95.10;;;;;;5032301;28;20373;-69
2021/05/24 08:43:47;;;;;;;2.30;0.80;;;19.00;94.80;;;;;;5033235;28;20028;-72
2021/05/24 08:46:13;;;;;;;2.33;0.98;;;19.10;94.60;;;;;;5031442;28;20044;-68
2021/05/24 08:48:40;;;;;;;2.55;1.00;;;19.30;94.60;;;;;;5032400;28;20116;-70
2021/05/24 08:51:07;;;;;;;2.15;0.90;;;19.40;94.70;;;;;;5032326;28;20037;-69
2021/05/24 08:53:35;;;;;;;4.00;1.00;;;19.40;94.70;;;;;;5032230;28;20547;-70
2021/05/24 08:56:01;;;;;;;2.10;1.00;;;19.50;94.50;;;;;;5031533;28;20029;-70
2021/05/24 08:58:27;;;;;;;2.30;0.82;;;19.60;94.50;;;;;;5031967;28;20462;-72
2021/05/24 09:00:53;;;;;;;2.08;0.98;;;19.70;94.60;;;;;;5031965;28;20037;-68
2021/05/24 09:03:21;;;;;;;2.63;0.90;;;19.90;94.40;;;;;;5032867;28;20377;-70
2021/05/24 09:05:48;;;;;;;1.70;0.80;;;19.90;94.60;;;;;;5032329;28;20436;-70
2021/05/24 09:08:14;;;;;;;1.92;0.75;;;19.90;95.00;;;;;;5032570;28;20025;-65
2021/05/24 09:10:44;;;;;;;2.30;0.63;;;20.00;94.60;;;;;;5032293;28;20556;-66
2021/05/24 09:13:16;;;;;;;1.45;0.65;;;20.10;94.60;;;;;;5032038;28;20604;-65
2021/05/24 09:15:47;;;;;;;2.20;0.73;;;20.20;94.50;;;;;;5032096;28;20086;-66
2021/05/24 09:18:14;;;;;;;1.80;0.70;;;20.40;94.10;;;;;;5032664;28;20105;-67
2021/05/24 09:20:46;;;;;;;2.33;0.80;;;20.50;93.80;;;;;;5031348;28;20504;-65
2021/05/24 09:23:12;;;;;;;1.63;0.80;;;20.50;93.70;;;;;;5031780;28;20485;-67
2021/05/24 09:26:04;;;;;;;1.63;0.50;;;20.80;93.40;;;;;;5031833;28;20017;-68
2021/05/24 09:28:40;;;;;;;1.80;0.60;;;20.90;93.30;;;;;;5031228;28;20035;-68
2021/05/24 09:31:15;;;;;;;1.90;0.80;;;21.10;93.10;;;;;;5031922;28;20108;-65
2021/05/24 09:33:44;;;;;;;1.30;0.63;;;21.10;93.10;;;;;;5031773;28;20029;-65
2021/05/24 09:36:10;;;;;;;2.45;0.82;;;21.40;92.90;;;;;;5031742;28;20036;-65
2021/05/24 09:38:41;;;;;;;2.17;0.70;;;21.50;92.80;;;;;;5031079;28;20045;-63
2021/05/24 09:41:08;;;;;;;1.90;0.60;;;21.40;93.00;;;;;;5030553;28;20034;-63
2021/05/24 09:43:38;;;;;;;2.13;0.60;;;21.30;93.10;;;;;;5030170;28;20036;-64
2021/05/24 09:46:14;;;;;;;1.45;0.68;;;21.30;93.50;;;;;;5030996;28;20029;-69
2021/05/24 09:48:41;;;;;;;1.40;0.60;;;21.20;93.20;;;;;;5031551;28;20026;-69
2021/05/24 09:51:09;;;;;;;1.73;0.70;;;21.20;93.30;;;;;;5031224;28;20074;-67
2021/05/24 09:53:36;;;;;;;1.23;0.75;;;21.20;92.90;;;;;;5031157;28;20044;-60
2021/05/24 09:56:04;;;;;;;1.38;0.60;;;21.20;93.00;;;;;;5031683;28;20021;-60
2021/05/24 09:58:30;;;;;;;2.08;0.55;;;21.10;93.00;;;;;;5031096;28;20370;-61
2021/05/24 10:01:12;;;;;;;1.45;0.60;;;21.10;92.90;;;;;;5031159;28;20048;-62
2021/05/24 10:03:38;;;;;;;2.17;0.75;;;21.10;93.00;;;;;;5030968;28;20033;-61
2021/05/24 10:06:04;;;;;;;3.08;0.63;;;21.10;92.90;;;;;;5030894;28;20036;-68
2021/05/24 10:08:30;;;;;;;2.30;0.65;;;21.20;92.90;;;;;;5023278;28;20363;-68
2021/05/24 10:10:56;;;;;;;2.25;0.73;;;21.10;92.80;;;;;;5031034;28;20033;-68
2021/05/24 10:13:24;;;;;;;2.20;0.93;;;21.10;92.90;;;;;;5030794;28;20052;-67
2021/05/24 10:15:54;;;;;;;1.75;0.73;;;21.00;92.90;;;;;;5031398;28;20025;-67
2021/05/24 10:18:20;;;;;;;2.53;1.00;;;21.10;93.10;;;;;;5031663;28;20391;-70
2021/05/24 10:20:46;;;;;;;2.50;0.98;;;21.10;93.00;;;;;;5031150;28;20029;-68
2021/05/24 10:23:12;;;;;;;1.30;0.70;;;21.10;93.00;;;;;;5030954;28;20026;-68
2021/05/24 10:25:37;;;;;;;1.30;0.80;;;21.20;93.10;;;;;;5030934;28;20029;-68
2021/05/24 10:28:05;;;;;;;1.00;0.57;;;21.20;93.00;;;;;;5030638;28;20030;-67
2021/05/24 10:30:34;;;;;;;2.78;0.80;;;21.10;93.00;;;;;;5030598;28;20036;-67
2021/05/24 10:33:05;;;;;;;1.52;0.70;;;21.10;93.00;;;;;;5030910;28;20556;-70
2021/05/24 10:35:33;;;;;;;2.05;0.70;;;21.10;93.00;;;;;;5028990;28;20025;-72
2021/05/24 10:38:19;;;;;;;3.13;0.90;;;21.10;92.90;;;;;;5029518;28;20125;-68
2021/05/24 10:40:45;;;;;;;0.95;0.75;;;21.20;93.20;;;;;;5030173;28;20037;-68
2021/05/24 10:43:13;;;;;;;3.38;0.88;;;21.20;93.00;;;;;;5030942;28;20419;-69
2021/05/24 10:45:38;;;;;;;1.85;0.80;;;21.20;93.00;;;;;;5030253;28;20163;-68
2021/05/24 10:48:04;;;;;;;2.33;0.80;;;21.20;93.10;;;;;;5030460;28;20108;-68
2021/05/24 10:50:32;;;;;;;2.20;0.70;;;21.20;93.10;;;;;;5030599;28;20029;-69
2021/05/24 10:53:20;;;;;;;4.63;1.23;;;21.20;93.20;;;;;;5030143;28;20030;-70
2021/05/24 10:55:49;;;;;;;2.92;1.10;;;21.10;93.50;;;;;;5030090;28;20040;-72
2021/05/24 10:58:17;;;;;;;2.13;0.90;;;21.00;93.40;;;;;;5030010;28;20021;-73
2021/05/24 11:01:03;;;;;;;2.42;1.00;;;21.10;93.30;;;;;;5029649;28;20128;-66
2021/05/24 11:03:30;;;;;;;1.77;0.93;;;21.20;93.20;;;;;;5028644;28;20021;-70
2021/05/24 11:06:18;;;;;;;6.68;1.13;;;21.20;93.20;;;;;;5030430;28;20025;-69
2021/05/24 11:09:05;;;;;;;2.63;1.10;;;21.20;93.30;;;;;;5029954;28;20033;-70
2021/05/24 11:11:34;;;;;;;1.88;0.93;;;21.20;93.30;;;;;;5030094;28;20116;-71
2021/05/24 11:14:10;;;;;;;4.63;1.05;;;21.20;93.20;;;;;;5030659;28;20087;-69
2021/05/24 11:16:37;;;;;;;3.45;1.08;;;21.20;93.30;;;;;;5029716;28;20363;-67
2021/05/24 11:19:14;;;;;;;5.40;1.35;;;21.10;93.40;;;;;;5031668;28;20095;-67
2021/05/24 11:21:48;;;;;;;5.47;1.00;;;21.10;93.30;;;;;;5033786;28;20124;-67
2021/05/24 11:24:39;;;;;;;;;;;21.10;93.00;;;;;;5030696;28;20469;-65
2021/05/24 11:27:14;;;;;;;2.60;1.15;;;21.00;92.40;;;;;;5034011;28;19964;-68
2021/05/24 11:29:43;;;;;;;4.28;1.48;;;20.90;92.50;;;;;;5033500;28;20033;-65
2021/05/24 11:32:23;;;;;;;3.25;1.20;;;20.90;92.80;;;;;;5033697;28;20485;-65
2021/05/24 11:34:51;;;;;;;3.33;1.40;;;21.00;93.00;;;;;;5034156;28;20017;-67
2021/05/24 11:37:19;;;;;;;3.03;1.38;;;21.00;93.00;;;;;;5034423;28;20041;-65
2021/05/24 11:39:48;;;;;;;5.03;1.40;;;21.10;93.20;;;;;;5033941;28;20025;-68
2021/05/24 11:42:20;;;;;;;3.50;1.30;;;21.10;93.30;;;;;;5033636;28;20452;-69
2021/05/24 11:44:48;;;;;;;5.05;1.75;;;21.10;93.30;;;;;;5033843;28;20037;-69
2021/05/24 11:47:20;;;;;;;4.20;1.42;;;21.20;93.40;;;;;;5033192;28;20021;-67
2021/05/24 11:49:48;;;;;;;3.65;1.80;;;21.10;93.80;;;;;;5033808;28;20140;-64
2021/05/24 11:52:19;;;;;;;5.40;1.55;;;21.20;93.50;;;;;;5033483;28;20105;-64
2021/05/24 11:54:49;;;;;;;4.00;1.50;;;21.10;93.50;;;;;;5033180;28;20482;-65
2021/05/24 11:57:20;;;;;;;4.18;1.50;;;21.20;93.70;;;;;;5033764;28;20034;-63
2021/05/24 11:59:46;;;;;;;5.35;1.88;;;21.10;93.70;;;;;;5023958;28;20124;-65
2021/05/24 12:02:13;;;;;;;4.38;1.90;;;21.20;93.60;;;;;;5033911;28;20038;-63
2021/05/24 12:04:42;;;;;;;5.28;1.40;;;21.30;93.40;;;;;;5033634;28;20029;-61
2021/05/24 12:07:11;;;;;;;3.13;1.23;;;21.20;93.30;;;;;;5033696;28;20152;-63
2021/05/24 12:09:40;;;;;;;4.32;1.40;;;21.30;93.30;;;;;;5033526;28;20033;-61
2021/05/24 12:12:09;;;;;;;3.92;1.65;;;21.30;93.50;;;;;;5033531;28;20017;-62
2021/05/24 12:14:35;;;;;;;4.97;1.73;;;21.30;93.40;;;;;;5033119;28;20026;-62
2021/05/24 12:17:10;;;;;;;4.53;1.70;;;21.20;93.30;;;;;;5033120;28;20033;-62
2021/05/24 12:19:36;;;;;;;6.50;1.73;;;21.10;93.50;;;;;;5033186;28;20032;-62
2021/05/24 12:22:05;;;;;;;4.55;1.63;;;21.20;93.80;;;;;;5032931;28;20042;-62
2021/05/24 12:24:32;;;;;;;5.93;1.90;;;21.20;94.10;;;;;;5032751;28;20026;-62
2021/05/24 12:26:58;;;;;;;3.80;1.73;;;21.20;93.70;;;;;;5033018;28;20029;-63
2021/05/24 12:29:30;;;;;;;3.67;1.70;;;21.20;93.70;;;;;;5032408;28;20495;-63
2021/05/24 12:31:58;;;;;;;3.85;1.63;;;21.20;93.70;;;;;;5018861;28;20055;-67
2021/05/24 12:34:34;;;;;;;3.95;1.70;;;21.10;93.80;;;;;;5032937;28;20022;-67
2021/05/24 12:37:00;;;;;;;3.15;1.42;;;21.20;93.60;;;;;;5032829;28;20057;-65
2021/05/24 12:39:28;;;;;;;3.92;1.63;;;21.20;93.40;;;;;;5032509;28;20025;-67
2021/05/24 12:41:58;;;;;;;3.92;1.52;;;21.30;93.40;;;;;;5032821;28;20068;-69
2021/05/24 12:44:24;;;;;;;3.42;1.35;;;21.40;93.50;;;;;;5032564;28;20021;-67
2021/05/24 12:46:52;;;;;;;7.13;1.67;;;21.40;93.50;;;;;;5033158;28;20032;-67
2021/05/24 12:49:22;;;;;;;4.03;1.52;;;21.40;93.50;;;;;;5032459;28;20092;-67